sensor_id;sensor_type;location;lat;lon;timestamp;P1;durP1;ratioP1;P2;durP2;ratioP2
46675;SDS011;32412;51.478;5.694;2022-10-04T00:04:26;22.23;;;14.80;;
46675;SDS011;32412;51.478;5.694;2022-10-04T00:09:35;31.92;;;15.15;;
46675;SDS011;32412;51.478;5.694;2022-10-04T00:12:13;26.67;;;15.40;;
46675;SDS011;32412;51.478;5.694;2022-10-04T00:14:56;25.02;;;15.82;;
46675;SDS011;32412;51.478;5.694;2022-10-04T00:17:26;25.20;;;16.10;;
46675;SDS011;32412;51.478;5.694;2022-10-04T00:20:01;26.38;;;15.45;;
46675;SDS011;32412;51.478;5.694;2022-10-04T00:25:45;32.15;;;16.35;;
46675;SDS011;32412;51.478;5.694;2022-10-04T00:46:59;28.02;;;16.88;;
46675;SDS011;32412;51.478;5.694;2022-10-04T00:49:28;27.02;;;16.67;;
46675;SDS011;32412;51.478;5.694;2022-10-04T00:52:05;26.52;;;16.70;;
46675;SDS011;32412;51.478;5.694;2022-10-04T00:54:37;33.92;;;18.25;;
46675;SDS011;32412;51.478;5.694;2022-10-04T00:57:08;30.92;;;17.83;;
46675;SDS011;32412;51.478;5.694;2022-10-04T01:10:39;27.73;;;18.58;;
46675;SDS011;32412;51.478;5.694;2022-10-04T01:13:20;26.17;;;19.00;;
46675;SDS011;32412;51.478;5.694;2022-10-04T01:18:42;29.20;;;19.90;;
46675;SDS011;32412;51.478;5.694;2022-10-04T01:21:19;30.50;;;19.25;;
46675;SDS011;32412;51.478;5.694;2022-10-04T01:23:51;33.03;;;19.10;;
46675;SDS011;32412;51.478;5.694;2022-10-04T01:26:40;28.25;;;18.33;;
46675;SDS011;32412;51.478;5.694;2022-10-04T01:31:43;30.50;;;18.60;;
46675;SDS011;32412;51.478;5.694;2022-10-04T01:34:11;30.65;;;19.27;;
46675;SDS011;32412;51.478;5.694;2022-10-04T01:36:39;35.38;;;20.95;;
46675;SDS011;32412;51.478;5.694;2022-10-04T01:39:05;31.42;;;19.77;;
46675;SDS011;32412;51.478;5.694;2022-10-04T01:44:45;32.40;;;20.02;;
46675;SDS011;32412;51.478;5.694;2022-10-04T01:47:15;32.40;;;20.17;;
46675;SDS011;32412;51.478;5.694;2022-10-04T01:49:50;38.85;;;21.15;;
46675;SDS011;32412;51.478;5.694;2022-10-04T01:52:23;35.38;;;20.35;;
46675;SDS011;32412;51.478;5.694;2022-10-04T01:54:59;33.53;;;19.63;;
46675;SDS011;32412;51.478;5.694;2022-10-04T01:57:38;36.50;;;21.92;;
46675;SDS011;32412;51.478;5.694;2022-10-04T02:00:09;35.90;;;21.13;;
46675;SDS011;32412;51.478;5.694;2022-10-04T02:02:51;37.40;;;23.02;;
46675;SDS011;32412;51.478;5.694;2022-10-04T02:05:51;34.35;;;21.27;;
46675;SDS011;32412;51.478;5.694;2022-10-04T02:08:26;39.78;;;22.15;;
46675;SDS011;32412;51.478;5.694;2022-10-04T02:10:55;31.98;;;21.08;;
46675;SDS011;32412;51.478;5.694;2022-10-04T02:13:22;43.60;;;21.08;;
46675;SDS011;32412;51.478;5.694;2022-10-04T02:15:53;33.13;;;20.20;;
46675;SDS011;32412;51.478;5.694;2022-10-04T02:18:20;33.33;;;19.88;;
46675;SDS011;32412;51.478;5.694;2022-10-04T02:20:48;30.13;;;19.85;;
46675;SDS011;32412;51.478;5.694;2022-10-04T02:23:15;39.78;;;22.90;;
46675;SDS011;32412;51.478;5.694;2022-10-04T02:25:43;40.70;;;22.13;;
46675;SDS011;32412;51.478;5.694;2022-10-04T02:28:11;42.47;;;22.33;;
46675;SDS011;32412;51.478;5.694;2022-10-04T02:30:39;34.55;;;21.55;;
46675;SDS011;32412;51.478;5.694;2022-10-04T02:33:08;36.88;;;22.75;;
46675;SDS011;32412;51.478;5.694;2022-10-04T02:35:35;37.67;;;21.98;;
46675;SDS011;32412;51.478;5.694;2022-10-04T02:38:23;36.30;;;22.00;;
46675;SDS011;32412;51.478;5.694;2022-10-04T02:43:26;36.13;;;20.17;;
46675;SDS011;32412;51.478;5.694;2022-10-04T02:51:19;34.53;;;18.88;;
46675;SDS011;32412;51.478;5.694;2022-10-04T02:53:59;30.13;;;17.02;;
46675;SDS011;32412;51.478;5.694;2022-10-04T02:56:31;27.98;;;17.63;;
46675;SDS011;32412;51.478;5.694;2022-10-04T02:59:01;28.45;;;16.45;;
46675;SDS011;32412;51.478;5.694;2022-10-04T03:02:02;36.55;;;16.35;;
46675;SDS011;32412;51.478;5.694;2022-10-04T03:04:24;28.48;;;16.30;;
46675;SDS011;32412;51.478;5.694;2022-10-04T03:06:52;28.77;;;16.30;;
46675;SDS011;32412;51.478;5.694;2022-10-04T03:09:20;31.42;;;16.30;;
46675;SDS011;32412;51.478;5.694;2022-10-04T03:11:48;29.48;;;15.23;;
46675;SDS011;32412;51.478;5.694;2022-10-04T03:14:17;25.10;;;15.63;;
46675;SDS011;32412;51.478;5.694;2022-10-04T03:16:45;24.90;;;15.40;;
46675;SDS011;32412;51.478;5.694;2022-10-04T03:19:14;24.70;;;14.88;;
46675;SDS011;32412;51.478;5.694;2022-10-04T03:21:42;23.85;;;14.50;;
46675;SDS011;32412;51.478;5.694;2022-10-04T03:24:14;22.73;;;14.82;;
46675;SDS011;32412;51.478;5.694;2022-10-04T03:26:51;22.58;;;14.40;;
46675;SDS011;32412;51.478;5.694;2022-10-04T03:29:21;23.67;;;14.02;;
46675;SDS011;32412;51.478;5.694;2022-10-04T03:31:52;22.98;;;13.60;;
46675;SDS011;32412;51.478;5.694;2022-10-04T03:34:23;26.63;;;15.82;;
46675;SDS011;32412;51.478;5.694;2022-10-04T03:36:51;24.45;;;13.18;;
46675;SDS011;32412;51.478;5.694;2022-10-04T03:41:58;20.55;;;12.80;;
46675;SDS011;32412;51.478;5.694;2022-10-04T03:44:39;23.65;;;13.05;;
46675;SDS011;32412;51.478;5.694;2022-10-04T03:47:28;21.80;;;14.05;;
46675;SDS011;32412;51.478;5.694;2022-10-04T03:49:57;28.02;;;13.25;;
46675;SDS011;32412;51.478;5.694;2022-10-04T03:52:30;20.88;;;12.90;;
46675;SDS011;32412;51.478;5.694;2022-10-04T03:54:59;20.08;;;14.05;;
46675;SDS011;32412;51.478;5.694;2022-10-04T03:57:28;21.75;;;13.60;;
46675;SDS011;32412;51.478;5.694;2022-10-04T03:59:55;22.42;;;13.00;;
46675;SDS011;32412;51.478;5.694;2022-10-04T04:02:29;19.35;;;12.85;;
46675;SDS011;32412;51.478;5.694;2022-10-04T04:05:11;22.92;;;12.88;;
46675;SDS011;32412;51.478;5.694;2022-10-04T04:10:36;24.00;;;12.35;;
46675;SDS011;32412;51.478;5.694;2022-10-04T04:13:10;24.35;;;13.18;;
46675;SDS011;32412;51.478;5.694;2022-10-04T04:15:46;27.77;;;13.00;;
46675;SDS011;32412;51.478;5.694;2022-10-04T04:18:16;22.30;;;13.52;;
46675;SDS011;32412;51.478;5.694;2022-10-04T04:20:44;26.35;;;13.20;;
46675;SDS011;32412;51.478;5.694;2022-10-04T04:25:41;22.10;;;11.88;;
46675;SDS011;32412;51.478;5.694;2022-10-04T04:28:20;19.27;;;12.10;;
46675;SDS011;32412;51.478;5.694;2022-10-04T04:30:51;18.55;;;11.25;;
46675;SDS011;32412;51.478;5.694;2022-10-04T04:33:28;22.00;;;11.88;;
46675;SDS011;32412;51.478;5.694;2022-10-04T04:36:01;20.95;;;11.35;;
46675;SDS011;32412;51.478;5.694;2022-10-04T04:38:31;26.83;;;12.40;;
46675;SDS011;32412;51.478;5.694;2022-10-04T04:41:05;25.52;;;12.25;;
46675;SDS011;32412;51.478;5.694;2022-10-04T04:43:34;16.63;;;10.60;;
46675;SDS011;32412;51.478;5.694;2022-10-04T04:45:59;20.38;;;10.98;;
46675;SDS011;32412;51.478;5.694;2022-10-04T04:48:26;19.65;;;10.75;;
46675;SDS011;32412;51.478;5.694;2022-10-04T04:50:55;18.48;;;10.93;;
46675;SDS011;32412;51.478;5.694;2022-10-04T04:53:23;18.65;;;11.40;;
46675;SDS011;32412;51.478;5.694;2022-10-04T04:55:54;17.95;;;10.50;;
46675;SDS011;32412;51.478;5.694;2022-10-04T04:58:35;20.05;;;12.27;;
46675;SDS011;32412;51.478;5.694;2022-10-04T05:01:18;25.38;;;11.57;;
46675;SDS011;32412;51.478;5.694;2022-10-04T05:04:11;23.15;;;10.70;;
46675;SDS011;32412;51.478;5.694;2022-10-04T05:06:46;22.90;;;10.98;;
46675;SDS011;32412;51.478;5.694;2022-10-04T05:09:24;17.92;;;10.80;;
46675;SDS011;32412;51.478;5.694;2022-10-04T05:11:55;24.20;;;11.07;;
46675;SDS011;32412;51.478;5.694;2022-10-04T05:14:26;23.05;;;10.23;;
46675;SDS011;32412;51.478;5.694;2022-10-04T05:16:56;21.05;;;10.32;;
46675;SDS011;32412;51.478;5.694;2022-10-04T05:19:30;22.00;;;10.80;;
46675;SDS011;32412;51.478;5.694;2022-10-04T05:22:00;20.90;;;9.95;;
46675;SDS011;32412;51.478;5.694;2022-10-04T05:24:44;17.15;;;9.40;;
46675;SDS011;32412;51.478;5.694;2022-10-04T05:29:45;17.50;;;9.40;;
46675;SDS011;32412;51.478;5.694;2022-10-04T05:32:31;18.10;;;9.20;;
46675;SDS011;32412;51.478;5.694;2022-10-04T05:35:24;20.90;;;9.52;;
46675;SDS011;32412;51.478;5.694;2022-10-04T05:38:02;20.98;;;9.30;;
46675;SDS011;32412;51.478;5.694;2022-10-04T05:43:44;16.75;;;8.20;;
46675;SDS011;32412;51.478;5.694;2022-10-04T05:48:41;17.17;;;9.57;;
46675;SDS011;32412;51.478;5.694;2022-10-04T05:51:19;16.17;;;8.40;;
46675;SDS011;32412;51.478;5.694;2022-10-04T05:53:50;16.55;;;9.05;;
46675;SDS011;32412;51.478;5.694;2022-10-04T06:04:39;18.02;;;9.43;;
46675;SDS011;32412;51.478;5.694;2022-10-04T06:19:03;16.30;;;9.48;;
46675;SDS011;32412;51.478;5.694;2022-10-04T06:26:51;14.98;;;8.95;;
46675;SDS011;32412;51.478;5.694;2022-10-04T06:29:22;20.45;;;10.57;;
46675;SDS011;32412;51.478;5.694;2022-10-04T06:37:27;14.02;;;8.68;;
46675;SDS011;32412;51.478;5.694;2022-10-04T06:42:50;13.02;;;8.30;;
46675;SDS011;32412;51.478;5.694;2022-10-04T06:51:08;13.68;;;8.90;;
46675;SDS011;32412;51.478;5.694;2022-10-04T06:53:54;17.10;;;7.43;;
46675;SDS011;32412;51.478;5.694;2022-10-04T06:57:05;16.50;;;8.32;;
46675;SDS011;32412;51.478;5.694;2022-10-04T06:59:51;16.17;;;8.45;;
46675;SDS011;32412;51.478;5.694;2022-10-04T07:02:39;12.95;;;8.32;;
46675;SDS011;32412;51.478;5.694;2022-10-04T07:05:41;16.75;;;8.93;;
46675;SDS011;32412;51.478;5.694;2022-10-04T07:10:51;14.77;;;8.40;;
46675;SDS011;32412;51.478;5.694;2022-10-04T07:15:55;19.85;;;7.97;;
46675;SDS011;32412;51.478;5.694;2022-10-04T07:21:08;17.98;;;8.85;;
46675;SDS011;32412;51.478;5.694;2022-10-04T07:23:58;17.67;;;8.00;;
46675;SDS011;32412;51.478;5.694;2022-10-04T07:26:36;13.90;;;8.63;;
46675;SDS011;32412;51.478;5.694;2022-10-04T07:29:22;18.00;;;8.23;;
46675;SDS011;32412;51.478;5.694;2022-10-04T07:34:43;15.88;;;7.93;;
46675;SDS011;32412;51.478;5.694;2022-10-04T07:37:32;17.95;;;8.60;;
46675;SDS011;32412;51.478;5.694;2022-10-04T07:40:02;19.10;;;8.55;;
46675;SDS011;32412;51.478;5.694;2022-10-04T07:42:38;15.57;;;8.23;;
46675;SDS011;32412;51.478;5.694;2022-10-04T07:45:21;18.05;;;8.45;;
46675;SDS011;32412;51.478;5.694;2022-10-04T07:48:09;14.30;;;8.32;;
46675;SDS011;32412;51.478;5.694;2022-10-04T07:53:29;15.60;;;8.57;;
46675;SDS011;32412;51.478;5.694;2022-10-04T07:55:59;13.82;;;7.35;;
46675;SDS011;32412;51.478;5.694;2022-10-04T07:58:51;13.23;;;7.47;;
46675;SDS011;32412;51.478;5.694;2022-10-04T08:06:38;19.42;;;7.28;;
46675;SDS011;32412;51.478;5.694;2022-10-04T08:09:17;11.07;;;6.80;;
46675;SDS011;32412;51.478;5.694;2022-10-04T08:11:49;11.82;;;7.20;;
46675;SDS011;32412;51.478;5.694;2022-10-04T08:26:47;9.73;;;6.22;;
46675;SDS011;32412;51.478;5.694;2022-10-04T08:43:08;12.55;;;6.03;;
46675;SDS011;32412;51.478;5.694;2022-10-04T08:57:53;12.88;;;6.13;;
46675;SDS011;32412;51.478;5.694;2022-10-04T09:00:49;12.73;;;7.32;;
46675;SDS011;32412;51.478;5.694;2022-10-04T09:12:44;13.60;;;6.20;;
46675;SDS011;32412;51.478;5.694;2022-10-04T09:15:33;19.45;;;6.63;;
46675;SDS011;32412;51.478;5.694;2022-10-04T09:23:36;10.15;;;6.45;;
46675;SDS011;32412;51.478;5.694;2022-10-04T09:42:41;9.05;;;4.78;;
46675;SDS011;32412;51.478;5.694;2022-10-04T09:57:14;7.97;;;3.97;;
46675;SDS011;32412;51.478;5.694;2022-10-04T10:11:33;9.20;;;3.78;;
46675;SDS011;32412;51.478;5.694;2022-10-04T10:17:18;8.93;;;3.47;;
46675;SDS011;32412;51.478;5.694;2022-10-04T10:46:09;8.80;;;3.00;;
46675;SDS011;32412;51.478;5.694;2022-10-04T10:59:10;9.82;;;3.40;;
46675;SDS011;32412;51.478;5.694;2022-10-04T11:02:17;6.93;;;3.25;;
46675;SDS011;32412;51.478;5.694;2022-10-04T11:05:16;9.50;;;3.05;;
46675;SDS011;32412;51.478;5.694;2022-10-04T11:36:44;5.47;;;2.65;;
46675;SDS011;32412;51.478;5.694;2022-10-04T11:45:12;7.35;;;2.45;;
46675;SDS011;32412;51.478;5.694;2022-10-04T12:08:03;11.38;;;2.65;;
46675;SDS011;32412;51.478;5.694;2022-10-04T12:10:38;5.30;;;2.85;;
46675;SDS011;32412;51.478;5.694;2022-10-04T12:13:10;8.77;;;2.80;;
46675;SDS011;32412;51.478;5.694;2022-10-04T12:16:22;6.75;;;2.65;;
46675;SDS011;32412;51.478;5.694;2022-10-04T12:22:06;5.88;;;3.15;;
46675;SDS011;32412;51.478;5.694;2022-10-04T12:27:51;6.15;;;2.92;;
46675;SDS011;32412;51.478;5.694;2022-10-04T12:38:41;5.90;;;2.75;;
46675;SDS011;32412;51.478;5.694;2022-10-04T12:47:02;5.63;;;2.95;;
46675;SDS011;32412;51.478;5.694;2022-10-04T12:49:58;5.85;;;2.58;;
46675;SDS011;32412;51.478;5.694;2022-10-04T12:55:45;6.38;;;2.67;;
46675;SDS011;32412;51.478;5.694;2022-10-04T13:12:43;6.85;;;3.20;;
46675;SDS011;32412;51.478;5.694;2022-10-04T13:15:21;5.30;;;3.20;;
46675;SDS011;32412;51.478;5.694;2022-10-04T13:18:16;4.63;;;3.08;;
46675;SDS011;32412;51.478;5.694;2022-10-04T13:30:58;5.95;;;2.70;;
46675;SDS011;32412;51.478;5.694;2022-10-04T13:36:00;6.95;;;3.38;;
46675;SDS011;32412;51.478;5.694;2022-10-04T13:44:29;6.47;;;2.78;;
46675;SDS011;32412;51.478;5.694;2022-10-04T14:01:10;8.95;;;2.88;;
46675;SDS011;32412;51.478;5.694;2022-10-04T14:18:14;8.90;;;3.10;;
46675;SDS011;32412;51.478;5.694;2022-10-04T14:40:47;6.20;;;3.15;;
46675;SDS011;32412;51.478;5.694;2022-10-04T14:57:03;8.90;;;3.65;;
46675;SDS011;32412;51.478;5.694;2022-10-04T15:06:09;6.93;;;3.70;;
46675;SDS011;32412;51.478;5.694;2022-10-04T15:09:04;6.72;;;3.72;;
46675;SDS011;32412;51.478;5.694;2022-10-04T15:14:28;5.70;;;3.92;;
46675;SDS011;32412;51.478;5.694;2022-10-04T15:17:25;10.20;;;4.20;;
46675;SDS011;32412;51.478;5.694;2022-10-04T15:20:13;10.35;;;3.70;;
46675;SDS011;32412;51.478;5.694;2022-10-04T15:22:50;7.88;;;3.75;;
46675;SDS011;32412;51.478;5.694;2022-10-04T15:28:37;5.47;;;3.63;;
46675;SDS011;32412;51.478;5.694;2022-10-04T15:31:22;4.72;;;3.97;;
46675;SDS011;32412;51.478;5.694;2022-10-04T15:34:04;9.80;;;3.88;;
46675;SDS011;32412;51.478;5.694;2022-10-04T15:42:36;7.38;;;3.40;;
46675;SDS011;32412;51.478;5.694;2022-10-04T15:54:09;8.77;;;3.50;;
46675;SDS011;32412;51.478;5.694;2022-10-04T16:01:46;9.40;;;4.10;;
46675;SDS011;32412;51.478;5.694;2022-10-04T16:23:39;7.47;;;4.25;;
46675;SDS011;32412;51.478;5.694;2022-10-04T16:28:56;9.70;;;4.05;;
46675;SDS011;32412;51.478;5.694;2022-10-04T16:31:45;6.95;;;4.45;;
46675;SDS011;32412;51.478;5.694;2022-10-04T16:40:29;8.80;;;4.82;;
46675;SDS011;32412;51.478;5.694;2022-10-04T16:43:32;7.63;;;4.22;;
46675;SDS011;32412;51.478;5.694;2022-10-04T16:46:05;6.43;;;4.05;;
46675;SDS011;32412;51.478;5.694;2022-10-04T16:48:52;8.55;;;4.10;;
46675;SDS011;32412;51.478;5.694;2022-10-04T17:04:42;9.32;;;4.57;;
46675;SDS011;32412;51.478;5.694;2022-10-04T17:07:34;7.85;;;4.82;;
46675;SDS011;32412;51.478;5.694;2022-10-04T17:13:17;9.15;;;4.78;;
46675;SDS011;32412;51.478;5.694;2022-10-04T17:21:11;8.82;;;4.90;;
46675;SDS011;32412;51.478;5.694;2022-10-04T17:26:41;11.65;;;5.60;;
46675;SDS011;32412;51.478;5.694;2022-10-04T17:29:31;10.75;;;5.93;;
46675;SDS011;32412;51.478;5.694;2022-10-04T17:42:56;8.70;;;4.72;;
46675;SDS011;32412;51.478;5.694;2022-10-04T17:48:15;12.27;;;5.47;;
46675;SDS011;32412;51.478;5.694;2022-10-04T17:54:08;13.57;;;6.22;;
46675;SDS011;32412;51.478;5.694;2022-10-04T17:59:30;10.48;;;6.30;;
46675;SDS011;32412;51.478;5.694;2022-10-04T18:02:14;10.40;;;6.95;;
46675;SDS011;32412;51.478;5.694;2022-10-04T18:04:56;14.18;;;8.00;;
46675;SDS011;32412;51.478;5.694;2022-10-04T18:07:26;13.48;;;8.60;;
46675;SDS011;32412;51.478;5.694;2022-10-04T18:10:16;14.93;;;9.55;;
46675;SDS011;32412;51.478;5.694;2022-10-04T18:13:19;14.18;;;8.60;;
46675;SDS011;32412;51.478;5.694;2022-10-04T18:18:26;14.40;;;8.10;;
46675;SDS011;32412;51.478;5.694;2022-10-04T18:23:27;14.32;;;7.85;;
46675;SDS011;32412;51.478;5.694;2022-10-04T18:25:58;17.95;;;7.25;;
46675;SDS011;32412;51.478;5.694;2022-10-04T18:28:31;13.95;;;8.48;;
46675;SDS011;32412;51.478;5.694;2022-10-04T18:30:58;13.52;;;7.78;;
46675;SDS011;32412;51.478;5.694;2022-10-04T18:33:48;17.77;;;9.57;;
46675;SDS011;32412;51.478;5.694;2022-10-04T18:36:20;11.57;;;7.60;;
46675;SDS011;32412;51.478;5.694;2022-10-04T18:41:35;17.77;;;7.55;;
46675;SDS011;32412;51.478;5.694;2022-10-04T18:44:16;21.23;;;7.47;;
46675;SDS011;32412;51.478;5.694;2022-10-04T18:47:11;12.05;;;7.22;;
46675;SDS011;32412;51.478;5.694;2022-10-04T18:49:48;9.20;;;7.35;;
46675;SDS011;32412;51.478;5.694;2022-10-04T18:58:00;13.65;;;7.45;;
46675;SDS011;32412;51.478;5.694;2022-10-04T19:01:09;11.70;;;7.35;;
46675;SDS011;32412;51.478;5.694;2022-10-04T19:04:01;17.98;;;7.97;;
46675;SDS011;32412;51.478;5.694;2022-10-04T19:06:32;13.27;;;7.13;;
46675;SDS011;32412;51.478;5.694;2022-10-04T19:11:36;17.65;;;8.43;;
46675;SDS011;32412;51.478;5.694;2022-10-04T19:14:22;17.23;;;8.75;;
46675;SDS011;32412;51.478;5.694;2022-10-04T19:27:48;12.10;;;8.50;;
46675;SDS011;32412;51.478;5.694;2022-10-04T19:30:21;17.08;;;9.57;;
46675;SDS011;32412;51.478;5.694;2022-10-04T19:40:44;11.20;;;8.23;;
46675;SDS011;32412;51.478;5.694;2022-10-04T19:43:33;13.00;;;8.30;;
46675;SDS011;32412;51.478;5.694;2022-10-04T19:49:13;15.98;;;8.48;;
46675;SDS011;32412;51.478;5.694;2022-10-04T19:51:49;16.88;;;10.27;;
46675;SDS011;32412;51.478;5.694;2022-10-04T19:54:21;16.20;;;9.38;;
46675;SDS011;32412;51.478;5.694;2022-10-04T19:56:56;13.80;;;8.70;;
46675;SDS011;32412;51.478;5.694;2022-10-04T19:59:33;17.33;;;9.35;;
46675;SDS011;32412;51.478;5.694;2022-10-04T20:02:11;13.57;;;9.20;;
46675;SDS011;32412;51.478;5.694;2022-10-04T20:04:37;14.65;;;9.23;;
46675;SDS011;32412;51.478;5.694;2022-10-04T20:12:01;16.45;;;8.90;;
46675;SDS011;32412;51.478;5.694;2022-10-04T20:37:07;17.33;;;9.38;;
46675;SDS011;32412;51.478;5.694;2022-10-04T20:42:14;17.20;;;9.63;;
46675;SDS011;32412;51.478;5.694;2022-10-04T20:47:45;17.60;;;9.68;;
46675;SDS011;32412;51.478;5.694;2022-10-04T20:53:16;18.55;;;9.57;;
46675;SDS011;32412;51.478;5.694;2022-10-04T20:55:46;15.35;;;9.35;;
46675;SDS011;32412;51.478;5.694;2022-10-04T21:00:51;17.63;;;8.52;;
46675;SDS011;32412;51.478;5.694;2022-10-04T21:03:19;17.80;;;9.15;;
46675;SDS011;32412;51.478;5.694;2022-10-04T21:05:57;16.48;;;8.98;;
46675;SDS011;32412;51.478;5.694;2022-10-04T21:08:25;17.67;;;8.77;;
46675;SDS011;32412;51.478;5.694;2022-10-04T21:11:04;14.27;;;9.80;;
46675;SDS011;32412;51.478;5.694;2022-10-04T21:16:31;18.17;;;12.52;;
46675;SDS011;32412;51.478;5.694;2022-10-04T21:22:45;18.58;;;9.73;;
46675;SDS011;32412;51.478;5.694;2022-10-04T21:24:55;14.20;;;9.10;;
46675;SDS011;32412;51.478;5.694;2022-10-04T21:29:54;15.05;;;8.70;;
46675;SDS011;32412;51.478;5.694;2022-10-04T21:32:20;16.48;;;8.90;;
46675;SDS011;32412;51.478;5.694;2022-10-04T21:34:47;15.02;;;9.23;;
46675;SDS011;32412;51.478;5.694;2022-10-04T21:37:13;14.02;;;8.63;;
46675;SDS011;32412;51.478;5.694;2022-10-04T21:39:39;20.08;;;9.73;;
46675;SDS011;32412;51.478;5.694;2022-10-04T21:42:05;17.60;;;9.65;;
46675;SDS011;32412;51.478;5.694;2022-10-04T21:44:31;17.40;;;9.57;;
46675;SDS011;32412;51.478;5.694;2022-10-04T21:46:56;15.23;;;10.27;;
46675;SDS011;32412;51.478;5.694;2022-10-04T21:49:22;15.68;;;10.70;;
46675;SDS011;32412;51.478;5.694;2022-10-04T21:51:48;17.05;;;8.57;;
46675;SDS011;32412;51.478;5.694;2022-10-04T21:54:13;15.35;;;9.30;;
46675;SDS011;32412;51.478;5.694;2022-10-04T21:56:39;13.75;;;8.45;;
46675;SDS011;32412;51.478;5.694;2022-10-04T21:59:04;15.48;;;8.77;;
46675;SDS011;32412;51.478;5.694;2022-10-04T22:01:30;13.95;;;8.38;;
46675;SDS011;32412;51.478;5.694;2022-10-04T22:03:56;14.50;;;9.25;;
46675;SDS011;32412;51.478;5.694;2022-10-04T22:06:21;14.25;;;8.82;;
46675;SDS011;32412;51.478;5.694;2022-10-04T22:08:47;13.82;;;9.32;;
46675;SDS011;32412;51.478;5.694;2022-10-04T22:11:13;15.35;;;8.82;;
46675;SDS011;32412;51.478;5.694;2022-10-04T22:13:38;11.80;;;8.63;;
46675;SDS011;32412;51.478;5.694;2022-10-04T22:16:04;14.18;;;8.98;;
46675;SDS011;32412;51.478;5.694;2022-10-04T22:18:30;12.60;;;8.55;;
46675;SDS011;32412;51.478;5.694;2022-10-04T22:20:56;13.18;;;9.15;;
46675;SDS011;32412;51.478;5.694;2022-10-04T22:23:23;12.20;;;8.50;;
46675;SDS011;32412;51.478;5.694;2022-10-04T22:25:51;14.48;;;9.32;;
46675;SDS011;32412;51.478;5.694;2022-10-04T22:28:22;15.57;;;10.05;;
46675;SDS011;32412;51.478;5.694;2022-10-04T22:30:50;11.43;;;9.05;;
46675;SDS011;32412;51.478;5.694;2022-10-04T22:33:30;12.93;;;9.23;;
46675;SDS011;32412;51.478;5.694;2022-10-04T22:35:59;14.63;;;9.82;;
46675;SDS011;32412;51.478;5.694;2022-10-04T22:38:38;13.88;;;9.35;;
46675;SDS011;32412;51.478;5.694;2022-10-04T22:41:08;16.55;;;9.73;;
46675;SDS011;32412;51.478;5.694;2022-10-04T22:43:36;17.05;;;10.00;;
46675;SDS011;32412;51.478;5.694;2022-10-04T22:46:02;18.88;;;10.52;;
46675;SDS011;32412;51.478;5.694;2022-10-04T22:48:28;19.55;;;10.90;;
46675;SDS011;32412;51.478;5.694;2022-10-04T22:50:54;16.40;;;10.70;;
46675;SDS011;32412;51.478;5.694;2022-10-04T22:53:20;15.07;;;10.05;;
46675;SDS011;32412;51.478;5.694;2022-10-04T22:55:47;14.35;;;10.18;;
46675;SDS011;32412;51.478;5.694;2022-10-04T22:58:14;18.85;;;10.10;;
46675;SDS011;32412;51.478;5.694;2022-10-04T23:00:41;18.75;;;10.85;;
46675;SDS011;32412;51.478;5.694;2022-10-04T23:05:50;15.30;;;10.38;;
46675;SDS011;32412;51.478;5.694;2022-10-04T23:08:16;17.65;;;10.40;;
46675;SDS011;32412;51.478;5.694;2022-10-04T23:10:44;18.38;;;10.88;;
46675;SDS011;32412;51.478;5.694;2022-10-04T23:13:10;16.20;;;10.48;;
46675;SDS011;32412;51.478;5.694;2022-10-04T23:15:36;15.77;;;11.23;;
46675;SDS011;32412;51.478;5.694;2022-10-04T23:18:04;18.13;;;10.38;;
46675;SDS011;32412;51.478;5.694;2022-10-04T23:20:39;14.02;;;10.18;;
46675;SDS011;32412;51.478;5.694;2022-10-04T23:23:04;19.15;;;10.23;;
46675;SDS011;32412;51.478;5.694;2022-10-04T23:25:42;15.38;;;10.25;;
46675;SDS011;32412;51.478;5.694;2022-10-04T23:28:12;17.55;;;10.07;;
46675;SDS011;32412;51.478;5.694;2022-10-04T23:30:39;14.70;;;10.60;;
46675;SDS011;32412;51.478;5.694;2022-10-04T23:33:13;17.27;;;10.35;;
46675;SDS011;32412;51.478;5.694;2022-10-04T23:35:41;15.63;;;10.77;;
46675;SDS011;32412;51.478;5.694;2022-10-04T23:38:09;13.13;;;9.80;;
46675;SDS011;32412;51.478;5.694;2022-10-04T23:40:42;15.23;;;9.88;;
46675;SDS011;32412;51.478;5.694;2022-10-04T23:43:13;17.98;;;10.43;;
46675;SDS011;32412;51.478;5.694;2022-10-04T23:45:53;18.63;;;10.63;;
46675;SDS011;32412;51.478;5.694;2022-10-04T23:48:26;13.88;;;10.68;;
46675;SDS011;32412;51.478;5.694;2022-10-04T23:50:56;14.23;;;9.88;;
46675;SDS011;32412;51.478;5.694;2022-10-04T23:53:27;15.50;;;9.52;;
46675;SDS011;32412;51.478;5.694;2022-10-04T23:55:55;15.27;;;10.38;;
46675;SDS011;32412;51.478;5.694;2022-10-04T23:58:31;20.35;;;11.10;;
